Time;durP1;ratioP1;P1;durP2;ratioP2;P2;SDS_P1;SDS_P2;PMS_P1;PMS_P2;Temp;Humidity;BMP_temperature;BMP_pressure;BME280_temperature;BME280_humidity;BME280_pressure;Samples;Min_cycle;Max_cycle;Signal;HPM_P1;HPM_P2
2021/11/11 00:01:46;;;;;;;4.25;2.80;;;;;;;;;;5056000;28;20025;-60
2021/11/11 00:04:12;;;;;;;4.63;3.38;;;;;;;;;;5055170;28;20048;-60
2021/11/11 00:06:41;;;;;;;5.82;3.10;;;;;;;;;;5054814;28;20116;-60
2021/11/11 00:09:07;;;;;;;5.30;3.35;;;;;;;;;;5055173;28;20104;-60
2021/11/11 00:11:33;;;;;;;5.57;3.67;;;;;;;;;;5054399;28;20419;-61
2021/11/11 00:13:59;;;;;;;5.03;3.10;;;;;;;;;;5055180;28;20071;-60
2021/11/11 00:16:25;;;;;;;6.88;3.70;;;;;;;;;;5054186;28;20033;-61
2021/11/11 00:18:51;;;;;;;5.90;3.38;;;;;;;;;;5054686;28;20454;-60
2021/11/11 00:21:17;;;;;;;4.93;3.42;;;;;;;;;;5054703;28;20473;-60
2021/11/11 00:23:43;;;;;;;5.55;3.47;;;;;;;;;;5053700;28;20029;-60
2021/11/11 00:26:10;;;;;;;4.22;3.45;;;;;;;;;;5055243;28;20468;-60
2021/11/11 00:28:36;;;;;;;5.38;3.65;;;;;;;;;;5053800;28;20082;-60
2021/11/11 00:31:02;;;;;;;4.90;3.17;;;;;;;;;;5066684;28;20021;-60
2021/11/11 00:33:28;;;;;;;4.95;3.08;;;;;;;;;;5072426;28;20517;-60
2021/11/11 00:35:54;;;;;;;4.38;3.15;;;;;;;;;;5074875;28;20071;-60
2021/11/11 00:38:20;;;;;;;4.75;2.90;;;;;;;;;;5074628;28;20038;-60
2021/11/11 00:40:46;;;;;;;5.15;3.20;;;;;;;;;;5074056;28;20871;-60
2021/11/11 00:43:12;;;;;;;5.15;3.40;;;;;;;;;;5074664;28;20108;-60
2021/11/11 00:45:38;;;;;;;5.57;3.13;;;;;;;;;;5073716;28;20032;-60
2021/11/11 00:48:05;;;;;;;3.63;2.65;;;;;;;;;;5074288;28;20062;-60
2021/11/11 00:50:32;;;;;;;4.05;2.80;;;;;;;;;;5073320;28;20029;-60
2021/11/11 00:52:59;;;;;;;5.93;3.08;;;;;;;;;;5069982;28;20448;-60
2021/11/11 00:55:27;;;;;;;5.03;3.00;;;;;;;;;;5057952;28;20036;-61
2021/11/11 00:57:53;;;;;;;5.28;2.65;;;;;;;;;;5073936;28;20039;-60
2021/11/11 01:00:20;;;;;;;4.88;3.00;;;;;;;;;;5074612;28;20055;-60
2021/11/11 01:02:48;;;;;;;4.38;3.00;;;;;;;;;;5074625;28;20020;-60
2021/11/11 01:05:14;;;;;;;5.35;2.95;;;;;;;;;;5072781;28;20064;-60
2021/11/11 01:07:40;;;;;;;5.10;3.20;;;;;;;;;;5072661;28;20069;-60
2021/11/11 01:10:07;;;;;;;4.07;3.28;;;;;;;;;;5074194;28;20024;-60
2021/11/11 01:12:33;;;;;;;4.78;3.00;;;;;;;;;;5073159;28;20021;-60
2021/11/11 01:14:59;;;;;;;3.67;2.70;;;;;;;;;;5073714;28;20082;-60
2021/11/11 01:17:28;;;;;;;6.90;3.25;;;;;;;;;;5073709;28;20033;-61
2021/11/11 01:19:54;;;;;;;4.32;3.30;;;;;;;;;;5073922;28;20024;-60
2021/11/11 01:22:21;;;;;;;4.78;3.13;;;;;;;;;;5064876;28;20021;-60
2021/11/11 01:24:47;;;;;;;7.05;3.08;;;;;;;;;;5060038;28;20373;-61
2021/11/11 01:27:13;;;;;;;8.02;3.13;;;;;;;;;;5073607;28;20031;-60
2021/11/11 01:29:38;;;;;;;6.43;3.20;;;;;;;;;;5072912;28;20024;-60
2021/11/11 01:32:05;;;;;;;6.35;3.45;;;;;;;;;;5074046;28;20041;-60
2021/11/11 01:34:31;;;;;;;5.65;3.70;;;;;;;;;;5072504;28;20056;-60
2021/11/11 01:36:57;;;;;;;5.30;3.22;;;;;;;;;;5073937;28;20393;-60
2021/11/11 01:39:23;;;;;;;3.20;2.70;;;;;;;;;;5062598;28;20047;-60
2021/11/11 01:41:50;;;;;;;6.15;3.65;;;;;;;;;;5053163;28;20032;-60
2021/11/11 01:44:17;;;;;;;5.85;3.72;;;;;;;;;;5053798;28;20029;-60
2021/11/11 01:46:44;;;;;;;4.20;2.78;;;;;;;;;;5052706;28;20470;-60
2021/11/11 01:49:10;;;;;;;5.45;3.08;;;;;;;;;;5053701;28;20071;-60
2021/11/11 01:51:36;;;;;;;5.05;2.63;;;;;;;;;;5057717;28;20111;-60
2021/11/11 01:54:02;;;;;;;5.35;3.20;;;;;;;;;;5054110;28;20040;-60
2021/11/11 01:56:28;;;;;;;4.28;2.70;;;;;;;;;;5056404;28;20108;-61
2021/11/11 01:58:55;;;;;;;4.65;2.90;;;;;;;;;;5051816;28;20025;-60
2021/11/11 02:01:22;;;;;;;4.32;3.20;;;;;;;;;;5052405;28;20021;-60
2021/11/11 02:03:48;;;;;;;4.35;3.10;;;;;;;;;;5052407;28;20100;-60
2021/11/11 02:06:14;;;;;;;3.30;2.20;;;;;;;;;;5053317;28;20032;-60
2021/11/11 02:08:40;;;;;;;3.45;2.90;;;;;;;;;;5052507;28;20029;-60
2021/11/11 02:11:06;;;;;;;3.58;2.47;;;;;;;;;;5053210;28;20028;-60
2021/11/11 02:13:32;;;;;;;4.20;2.72;;;;;;;;;;5052124;28;20036;-60
2021/11/11 02:15:59;;;;;;;4.28;2.55;;;;;;;;;;5052992;28;20044;-60
2021/11/11 02:18:27;;;;;;;3.97;2.78;;;;;;;;;;5052272;28;20025;-60
2021/11/11 02:20:53;;;;;;;6.40;3.00;;;;;;;;;;5052668;28;20071;-60
2021/11/11 02:23:20;;;;;;;5.30;3.35;;;;;;;;;;5052689;28;20036;-60
2021/11/11 02:25:46;;;;;;;3.58;2.70;;;;;;;;;;5051984;28;20662;-60
2021/11/11 02:28:14;;;;;;;5.40;3.03;;;;;;;;;;5052936;28;20029;-60
2021/11/11 02:30:41;;;;;;;6.03;3.78;;;;;;;;;;5066022;28;20032;-60
2021/11/11 02:33:09;;;;;;;3.83;2.90;;;;;;;;;;5071424;28;20025;-60
2021/11/11 02:35:35;;;;;;;3.90;2.53;;;;;;;;;;5070069;28;20114;-60
2021/11/11 02:38:01;;;;;;;4.30;2.50;;;;;;;;;;5072219;28;20029;-60
2021/11/11 02:40:30;;;;;;;6.57;3.15;;;;;;;;;;5071850;28;20048;-61
2021/11/11 02:42:56;;;;;;;6.05;3.30;;;;;;;;;;5054078;28;20421;-60
2021/11/11 02:45:27;;;;;;;5.05;2.85;;;;;;;;;;5040369;28;20025;-60
2021/11/11 02:47:53;;;;;;;4.50;3.03;;;;;;;;;;5032120;28;20021;-60
2021/11/11 02:50:21;;;;;;;5.80;2.72;;;;;;;;;;5044458;28;20108;-60
2021/11/11 02:52:48;;;;;;;5.00;3.03;;;;;;;;;;5051689;28;20031;-60
2021/11/11 02:55:14;;;;;;;4.88;3.08;;;;;;;;;;5040079;28;20385;-60
2021/11/11 02:57:41;;;;;;;5.90;3.53;;;;;;;;;;5038963;28;20029;-60
2021/11/11 03:00:10;;;;;;;5.40;3.17;;;;;;;;;;5051795;28;20021;-60
2021/11/11 03:02:40;;;;;;;5.05;3.33;;;;;;;;;;5051324;28;20100;-60
2021/11/11 03:05:08;;;;;;;3.65;2.65;;;;;;;;;;5042733;28;20037;-60
2021/11/11 03:07:34;;;;;;;3.35;2.67;;;;;;;;;;5037490;28;20501;-60
2021/11/11 03:10:00;;;;;;;4.72;3.17;;;;;;;;;;5051534;28;20478;-60
2021/11/11 03:12:27;;;;;;;3.92;3.08;;;;;;;;;;5052163;28;20067;-60
2021/11/11 03:14:53;;;;;;;7.35;2.75;;;;;;;;;;5050861;28;20090;-60
2021/11/11 03:17:20;;;;;;;4.82;3.10;;;;;;;;;;5047465;28;20467;-59
2021/11/11 03:19:46;;;;;;;5.47;3.13;;;;;;;;;;5031373;28;20037;-60
2021/11/11 03:22:16;;;;;;;4.20;2.92;;;;;;;;;;5040117;28;20047;-60
2021/11/11 03:24:42;;;;;;;4.10;2.80;;;;;;;;;;5046528;28;22197;-60
2021/11/11 03:27:10;;;;;;;5.40;2.92;;;;;;;;;;5050058;28;20080;-60
2021/11/11 03:29:36;;;;;;;4.13;3.05;;;;;;;;;;5048795;28;20522;-60
2021/11/11 03:32:02;;;;;;;3.40;2.67;;;;;;;;;;5051249;28;20036;-60
2021/11/11 03:34:36;;;;;;;7.43;3.28;;;;;;;;;;5050738;28;20045;-60
2021/11/11 03:37:03;;;;;;;4.30;2.35;;;;;;;;;;5032489;28;20091;-60
2021/11/11 03:39:35;;;;;;;4.40;2.83;;;;;;;;;;5037301;28;20040;-61
2021/11/11 03:42:03;;;;;;;3.50;2.53;;;;;;;;;;5051392;28;20556;-60
2021/11/11 03:44:35;;;;;;;4.50;2.58;;;;;;;;;;5050657;28;20037;-61
2021/11/11 03:47:03;;;;;;;4.88;2.60;;;;;;;;;;5051539;28;20115;-60
2021/11/11 03:49:36;;;;;;;4.28;3.17;;;;;;;;;;5045858;28;20030;-60
2021/11/11 03:52:03;;;;;;;3.92;2.78;;;;;;;;;;5031721;28;20036;-60
2021/11/11 03:54:36;;;;;;;3.90;2.35;;;;;;;;;;5031747;28;20359;-61
2021/11/11 03:57:02;;;;;;;3.33;2.30;;;;;;;;;;5040611;28;20056;-60
2021/11/11 03:59:34;;;;;;;5.13;2.75;;;;;;;;;;5058561;28;20025;-60
2021/11/11 04:02:00;;;;;;;3.08;2.50;;;;;;;;;;5051349;28;20068;-60
2021/11/11 04:04:26;;;;;;;3.92;2.55;;;;;;;;;;5051569;28;20091;-60
2021/11/11 04:06:52;;;;;;;3.83;3.00;;;;;;;;;;5049378;28;20596;-60
2021/11/11 04:09:18;;;;;;;5.93;3.47;;;;;;;;;;5051654;28;20120;-60
2021/11/11 04:11:44;;;;;;;3.28;2.42;;;;;;;;;;5050539;28;20033;-60
2021/11/11 04:14:11;;;;;;;3.03;2.42;;;;;;;;;;5051339;28;20033;-60
2021/11/11 04:16:39;;;;;;;3.95;2.72;;;;;;;;;;5050391;28;20036;-60
2021/11/11 04:19:05;;;;;;;3.25;2.25;;;;;;;;;;5051675;28;20035;-60
2021/11/11 04:21:37;;;;;;;6.65;2.67;;;;;;;;;;5051226;28;20029;-61
2021/11/11 04:24:04;;;;;;;4.28;2.80;;;;;;;;;;5051487;28;20112;-60
2021/11/11 04:26:47;;;;;;;3.60;2.60;;;;;;;;;;5051329;28;20052;-61
2021/11/11 04:29:22;;;;;;;5.10;2.60;;;;;;;;;;5065770;28;20529;-60
2021/11/11 04:31:54;;;;;;;3.70;2.75;;;;;;;;;;5069751;28;20054;-60
2021/11/11 04:34:21;;;;;;;4.07;2.72;;;;;;;;;;5070983;28;20119;-60
2021/11/11 05:03:36;;;;;;;3.78;2.60;;;;;;;;;;5065659;28;20044;-61
2021/11/11 05:06:03;;;;;;;8.73;3.17;;;;;;;;;;5054341;28;20033;-60
2021/11/11 05:08:30;;;;;;;3.78;2.83;;;;;;;;;;5055064;28;20017;-59
2021/11/11 05:10:56;;;;;;;4.47;3.08;;;;;;;;;;5054514;28;20122;-60
2021/11/11 05:13:23;;;;;;;4.80;3.25;;;;;;;;;;5053878;28;20045;-60
2021/11/11 05:15:49;;;;;;;3.15;2.28;;;;;;;;;;5052413;28;20044;-60
2021/11/11 05:18:16;;;;;;;3.70;2.83;;;;;;;;;;5054602;28;20020;-60
2021/11/11 05:20:42;;;;;;;5.68;2.92;;;;;;;;;;5054119;28;20040;-60
2021/11/11 05:23:08;;;;;;;4.35;2.70;;;;;;;;;;5056139;28;20484;-60
2021/11/11 05:25:35;;;;;;;3.17;2.38;;;;;;;;;;5054318;28;20551;-61
2021/11/11 05:28:01;;;;;;;4.38;2.33;;;;;;;;;;5053124;28;20040;-60
2021/11/11 05:30:28;;;;;;;4.05;2.55;;;;;;;;;;5051835;28;20060;-60
2021/11/11 05:32:54;;;;;;;5.20;2.72;;;;;;;;;;5054629;28;20020;-60
2021/11/11 05:35:20;;;;;;;5.18;2.97;;;;;;;;;;5052400;28;20049;-60
2021/11/11 05:37:47;;;;;;;4.03;2.75;;;;;;;;;;5051463;28;20470;-60
2021/11/11 05:40:14;;;;;;;4.45;2.60;;;;;;;;;;5052893;28;20079;-60
2021/11/11 05:42:40;;;;;;;3.20;2.28;;;;;;;;;;5053888;28;20025;-60
2021/11/11 05:45:08;;;;;;;3.25;2.95;;;;;;;;;;5052684;28;20103;-60
2021/11/11 05:47:36;;;;;;;3.55;2.58;;;;;;;;;;5051786;28;20070;-61
2021/11/11 05:50:03;;;;;;;3.00;2.53;;;;;;;;;;5052631;28;20025;-60
2021/11/11 05:52:29;;;;;;;4.38;2.60;;;;;;;;;;5055583;28;20025;-60
2021/11/11 05:54:55;;;;;;;4.35;2.65;;;;;;;;;;5054932;28;20809;-60
2021/11/11 05:57:21;;;;;;;4.75;2.92;;;;;;;;;;5052344;28;20029;-60
2021/11/11 05:59:47;;;;;;;4.70;2.75;;;;;;;;;;5055236;28;20083;-60
2021/11/11 06:02:14;;;;;;;3.92;2.55;;;;;;;;;;5051574;28;20425;-61
2021/11/11 06:04:40;;;;;;;3.25;2.72;;;;;;;;;;5050828;28;20041;-60
2021/11/11 06:07:07;;;;;;;4.22;2.75;;;;;;;;;;5053045;28;20135;-60
2021/11/11 06:09:36;;;;;;;4.50;3.55;;;;;;;;;;5052873;28;20018;-61
2021/11/11 06:12:02;;;;;;;2.53;2.22;;;;;;;;;;5053225;28;20032;-60
2021/11/11 06:14:29;;;;;;;5.03;2.53;;;;;;;;;;5052634;28;20033;-60
2021/11/11 06:16:55;;;;;;;3.85;2.70;;;;;;;;;;5051882;28;20028;-60
2021/11/11 06:19:21;;;;;;;3.92;2.45;;;;;;;;;;5052781;28;20021;-61
2021/11/11 06:21:47;;;;;;;3.55;2.15;;;;;;;;;;5056092;28;20021;-61
2021/11/11 06:24:15;;;;;;;4.45;3.05;;;;;;;;;;5052947;28;20031;-60
2021/11/11 06:26:41;;;;;;;6.15;2.92;;;;;;;;;;5064051;28;20025;-62
2021/11/11 06:29:08;;;;;;;4.50;2.70;;;;;;;;;;5052757;28;20023;-61
2021/11/11 06:31:36;;;;;;;4.55;2.80;;;;;;;;;;5051367;28;20025;-64
2021/11/11 06:34:03;;;;;;;5.80;3.83;;;;;;;;;;5054825;28;20067;-62
2021/11/11 06:36:29;;;;;;;6.28;2.97;;;;;;;;;;5072777;28;20078;-62
2021/11/11 06:38:55;;;;;;;8.35;3.40;;;;;;;;;;5071601;28;20020;-64
2021/11/11 06:41:21;;;;;;;6.45;2.90;;;;;;;;;;5072511;28;20032;-59
2021/11/11 06:43:47;;;;;;;6.07;3.15;;;;;;;;;;5071338;28;20096;-65
2021/11/11 06:46:14;;;;;;;4.93;3.55;;;;;;;;;;5062761;28;20047;-64
2021/11/11 06:48:40;;;;;;;5.20;2.88;;;;;;;;;;5052048;28;20108;-62
2021/11/11 06:51:06;;;;;;;6.82;3.10;;;;;;;;;;5044053;28;20048;-61
2021/11/11 06:53:33;;;;;;;4.32;2.80;;;;;;;;;;5072490;28;20056;-62
2021/11/11 06:55:59;;;;;;;7.10;3.38;;;;;;;;;;5070785;28;21054;-61
2021/11/11 06:58:27;;;;;;;3.78;2.90;;;;;;;;;;5073366;28;20520;-62
2021/11/11 07:00:54;;;;;;;3.97;2.67;;;;;;;;;;5074502;28;20100;-63
2021/11/11 07:03:20;;;;;;;7.03;3.10;;;;;;;;;;5058639;28;20021;-63
2021/11/11 07:05:47;;;;;;;10.20;6.35;;;;;;;;;;5070356;28;20056;-61
2021/11/11 07:08:13;;;;;;;14.75;8.30;;;;;;;;;;5072303;28;20024;-62
2021/11/11 07:10:40;;;;;;;12.50;8.80;;;;;;;;;;5070451;28;20120;-62
2021/11/11 07:13:07;;;;;;;14.77;9.15;;;;;;;;;;5061378;28;20036;-62
2021/11/11 07:15:34;;;;;;;13.98;8.50;;;;;;;;;;5071635;28;20040;-62
2021/11/11 07:18:00;;;;;;;11.45;8.85;;;;;;;;;;5071082;28;20029;-63
2021/11/11 07:20:26;;;;;;;14.07;7.57;;;;;;;;;;5070682;28;20021;-63
2021/11/11 07:22:58;;;;;;;11.25;7.97;;;;;;;;;;5056724;28;20096;-63
2021/11/11 07:25:24;;;;;;;14.52;7.10;;;;;;;;;;5066322;28;20456;-63
2021/11/11 07:27:52;;;;;;;9.50;6.35;;;;;;;;;;5071104;28;20021;-63
2021/11/11 07:30:19;;;;;;;8.57;5.82;;;;;;;;;;5071371;28;20025;-63
2021/11/11 07:32:46;;;;;;;9.05;5.22;;;;;;;;;;5070942;28;20082;-63
2021/11/11 07:35:12;;;;;;;8.43;5.60;;;;;;;;;;5070353;28;20517;-63
2021/11/11 07:37:40;;;;;;;9.20;5.35;;;;;;;;;;5070419;28;20115;-63
2021/11/11 07:40:07;;;;;;;9.23;5.35;;;;;;;;;;5071026;28;20020;-63
2021/11/11 07:42:34;;;;;;;7.60;4.43;;;;;;;;;;5071541;28;20028;-63
2021/11/11 07:45:00;;;;;;;5.60;4.38;;;;;;;;;;5070427;28;20066;-63
2021/11/11 07:47:28;;;;;;;6.75;4.10;;;;;;;;;;5069396;28;20025;-63
2021/11/11 07:49:56;;;;;;;8.63;5.07;;;;;;;;;;5070362;28;20035;-63
2021/11/11 07:52:22;;;;;;;6.43;4.20;;;;;;;;;;5070629;28;20480;-63
2021/11/11 07:54:48;;;;;;;7.53;4.47;;;;;;;;;;5069886;28;20037;-63
2021/11/11 07:57:15;;;;;;;6.47;4.55;;;;;;;;;;5069761;28;20111;-63
2021/11/11 07:59:41;;;;;;;5.63;3.85;;;;;;;;;;5059522;28;20100;-63
2021/11/11 08:02:08;;;;;;;6.53;4.30;;;;;;;;;;5057981;28;20025;-62
2021/11/11 08:04:34;;;;;;;12.07;4.88;;;;;;;;;;5055693;28;20183;-62
2021/11/11 08:07:00;;;;;;;5.88;4.13;;;;;;;;;;5050272;28;20036;-62
2021/11/11 08:09:26;;;;;;;7.72;4.25;;;;;;;;;;5051052;28;20116;-62
2021/11/11 08:11:52;;;;;;;9.93;4.93;;;;;;;;;;5050607;28;20393;-62
2021/11/11 08:14:18;;;;;;;4.43;3.63;;;;;;;;;;5049286;28;20363;-62
2021/11/11 08:16:44;;;;;;;8.75;4.53;;;;;;;;;;5051070;28;20382;-63
2021/11/11 08:19:10;;;;;;;8.48;4.65;;;;;;;;;;5054913;28;20047;-62
2021/11/11 08:21:36;;;;;;;6.90;4.15;;;;;;;;;;5049823;28;20033;-62
2021/11/11 08:24:03;;;;;;;6.47;3.70;;;;;;;;;;5055590;28;20091;-62
2021/11/11 08:26:29;;;;;;;8.80;3.65;;;;;;;;;;5055874;28;20029;-62
2021/11/11 08:28:55;;;;;;;5.05;3.55;;;;;;;;;;5067929;28;20032;-62
2021/11/11 08:31:21;;;;;;;6.88;3.60;;;;;;;;;;5074472;28;20032;-62
2021/11/11 08:33:47;;;;;;;8.00;4.13;;;;;;;;;;5071285;28;20024;-62
2021/11/11 08:36:13;;;;;;;6.18;3.88;;;;;;;;;;5054641;28;20482;-62
2021/11/11 08:38:42;;;;;;;7.00;4.05;;;;;;;;;;5056148;28;20075;-63
2021/11/11 08:41:08;;;;;;;6.03;4.47;;;;;;;;;;5074044;28;20029;-63
2021/11/11 08:43:34;;;;;;;5.85;3.60;;;;;;;;;;5072294;28;20044;-62
2021/11/11 08:46:01;;;;;;;5.38;3.45;;;;;;;;;;5068283;28;20025;-63
2021/11/11 08:48:27;;;;;;;6.00;4.45;;;;;;;;;;5074067;28;20025;-62
2021/11/11 08:50:55;;;;;;;8.38;4.55;;;;;;;;;;5072879;28;20539;-63
2021/11/11 08:53:21;;;;;;;9.65;3.58;;;;;;;;;;5073863;28;20032;-62
2021/11/11 08:55:47;;;;;;;6.60;4.25;;;;;;;;;;5073692;28;20112;-62
2021/11/11 08:58:14;;;;;;;8.30;4.07;;;;;;;;;;5074039;28;20023;-62
2021/11/11 09:00:45;;;;;;;6.65;4.05;;;;;;;;;;5054924;28;20036;-63
2021/11/11 09:03:12;;;;;;;6.90;4.32;;;;;;;;;;5060997;28;20104;-62
2021/11/11 09:05:40;;;;;;;5.28;3.60;;;;;;;;;;5058139;28;20040;-62
2021/11/11 09:08:08;;;;;;;5.88;4.22;;;;;;;;;;5072228;28;20021;-62
2021/11/11 09:10:34;;;;;;;5.75;4.20;;;;;;;;;;5056866;28;20424;-62
2021/11/11 09:13:01;;;;;;;6.00;3.47;;;;;;;;;;5053516;28;20079;-62
2021/11/11 09:15:28;;;;;;;5.18;4.07;;;;;;;;;;5054495;28;20033;-62
2021/11/11 09:17:56;;;;;;;4.57;3.55;;;;;;;;;;5052591;28;20370;-62
2021/11/11 09:20:24;;;;;;;6.82;4.38;;;;;;;;;;5061208;28;20079;-62
2021/11/11 09:22:51;;;;;;;6.70;3.72;;;;;;;;;;5047152;28;20520;-63
2021/11/11 09:25:17;;;;;;;9.02;4.53;;;;;;;;;;5053866;28;20033;-63
2021/11/11 09:27:44;;;;;;;7.60;3.88;;;;;;;;;;5053152;28;20092;-63
2021/11/11 09:30:18;;;;;;;5.53;4.38;;;;;;;;;;5053957;28;20103;-63
2021/11/11 09:32:45;;;;;;;5.95;3.70;;;;;;;;;;5065488;28;20032;-63
2021/11/11 09:35:11;;;;;;;8.35;4.22;;;;;;;;;;5073585;28;20076;-62
2021/11/11 09:37:38;;;;;;;6.22;3.95;;;;;;;;;;5073442;28;20029;-62
2021/11/11 09:40:05;;;;;;;5.50;3.90;;;;;;;;;;5071651;28;20033;-62
2021/11/11 09:42:33;;;;;;;6.28;4.32;;;;;;;;;;5071476;28;20028;-63
2021/11/11 09:44:59;;;;;;;7.88;3.63;;;;;;;;;;5069674;28;20025;-63
2021/11/11 09:47:26;;;;;;;6.22;4.18;;;;;;;;;;5068514;28;20033;-62
2021/11/11 09:49:52;;;;;;;5.30;3.42;;;;;;;;;;5071443;28;20047;-62
2021/11/11 09:52:18;;;;;;;7.95;4.40;;;;;;;;;;5073419;28;20033;-62
2021/11/11 10:00:16;;;;;;;4.80;3.30;;;;;;;;;;5072808;28;20035;-62
2021/11/11 10:02:45;;;;;;;5.05;3.70;;;;;;;;;;5070846;28;20111;-63
2021/11/11 10:05:12;;;;;;;5.45;3.95;;;;;;;;;;5072554;28;20098;-62
2021/11/11 10:07:38;;;;;;;4.78;3.78;;;;;;;;;;5052622;28;20032;-62
2021/11/11 10:10:05;;;;;;;6.57;4.43;;;;;;;;;;5052267;28;20474;-63
2021/11/11 10:12:32;;;;;;;6.10;4.10;;;;;;;;;;5070935;28;20033;-62
2021/11/11 10:15:11;;;;;;;4.13;3.63;;;;;;;;;;5072226;28;20112;-63
2021/11/11 10:17:41;;;;;;;6.00;3.92;;;;;;;;;;5072271;28;20043;-63
2021/11/11 10:20:09;;;;;;;5.18;4.03;;;;;;;;;;5072404;28;20082;-62
2021/11/11 10:22:36;;;;;;;5.45;4.25;;;;;;;;;;5061672;28;20059;-63
2021/11/11 10:25:06;;;;;;;4.65;3.70;;;;;;;;;;5069024;28;20165;-63
2021/11/11 10:27:42;;;;;;;5.10;3.58;;;;;;;;;;5072430;28;20028;-63
2021/11/11 10:30:10;;;;;;;6.57;4.18;;;;;;;;;;5072230;28;20025;-63
2021/11/11 10:32:38;;;;;;;6.75;3.88;;;;;;;;;;5072549;28;20028;-63
2021/11/11 10:35:05;;;;;;;5.63;4.07;;;;;;;;;;5071312;28;20063;-62
2021/11/11 10:37:34;;;;;;;6.00;4.22;;;;;;;;;;5072096;28;20032;-62
2021/11/11 10:40:02;;;;;;;3.42;3.03;;;;;;;;;;5070544;28;20108;-62
2021/11/11 10:42:29;;;;;;;5.22;3.95;;;;;;;;;;5072195;28;20025;-62
2021/11/11 10:44:56;;;;;;;4.57;3.33;;;;;;;;;;5071330;28;20081;-62
2021/11/11 10:47:24;;;;;;;4.68;3.53;;;;;;;;;;5071860;28;20604;-63
2021/11/11 10:49:50;;;;;;;7.32;3.72;;;;;;;;;;5071645;28;20108;-63
2021/11/11 10:52:30;;;;;;;5.97;3.88;;;;;;;;;;5071897;28;20111;-63
2021/11/11 10:54:58;;;;;;;7.88;4.13;;;;;;;;;;5070677;28;20081;-63
2021/11/11 10:57:32;;;;;;;4.78;3.60;;;;;;;;;;5071602;28;20477;-62
2021/11/11 11:00:17;;;;;;;6.00;4.03;;;;;;;;;;5069477;28;20021;-62
2021/11/11 11:02:49;;;;;;;4.10;3.67;;;;;;;;;;5067381;28;20126;-63
2021/11/11 11:05:15;;;;;;;;;;;;;;;;;;5072377;28;20493;-63
2021/11/11 11:07:41;;;;;;;4.03;3.20;;;;;;;;;;5072337;28;19911;-62
2021/11/11 11:10:08;;;;;;;6.18;4.05;;;;;;;;;;5070782;28;20369;-63
2021/11/11 11:12:34;;;;;;;6.45;3.78;;;;;;;;;;5069303;28;20143;-63
2021/11/11 11:15:00;;;;;;;5.07;3.92;;;;;;;;;;5070007;28;20045;-63
2021/11/11 11:17:27;;;;;;;4.35;3.60;;;;;;;;;;5071578;28;20029;-63
2021/11/11 11:20:13;;;;;;;4.82;3.88;;;;;;;;;;5071296;28;20044;-63
2021/11/11 11:22:40;;;;;;;4.20;3.22;;;;;;;;;;5063018;28;20412;-63
2021/11/11 11:25:06;;;;;;;4.97;3.30;;;;;;;;;;5070743;28;20024;-62
2021/11/11 11:27:34;;;;;;;5.30;4.10;;;;;;;;;;5069935;28;20025;-62
2021/11/11 11:30:09;;;;;;;6.05;4.18;;;;;;;;;;5070741;28;20024;-63
2021/11/11 11:32:40;;;;;;;4.05;3.30;;;;;;;;;;5071328;28;20377;-63
2021/11/11 11:35:06;;;;;;;4.88;3.58;;;;;;;;;;5060637;28;20075;-63
2021/11/11 11:37:34;;;;;;;6.13;4.03;;;;;;;;;;5061152;28;20504;-63
2021/11/11 11:40:16;;;;;;;5.35;3.42;;;;;;;;;;5061690;28;20064;-63
2021/11/11 11:42:43;;;;;;;7.22;3.58;;;;;;;;;;5063089;28;20036;-63
2021/11/11 11:45:14;;;;;;;6.07;3.92;;;;;;;;;;5070885;28;20036;-63
2021/11/11 11:47:53;;;;;;;4.93;3.78;;;;;;;;;;5071299;28;20025;-63
2021/11/11 11:50:23;;;;;;;4.80;3.53;;;;;;;;;;5071700;28;20025;-63
2021/11/11 11:52:55;;;;;;;6.15;3.33;;;;;;;;;;5074245;28;20147;-63
2021/11/11 11:55:26;;;;;;;4.75;4.20;;;;;;;;;;5075547;28;20025;-63
2021/11/11 12:08:31;;;;;;;5.85;3.72;;;;;;;;;;5061187;28;20048;-64
2021/11/11 12:13:55;;;;;;;;;;;;;;;;;;5073403;28;20028;-64
2021/11/11 12:16:59;;;;;;;6.45;3.88;;;;;;;;;;5075351;28;19916;-64
2021/11/11 12:39:32;;;;;;;3.97;3.10;;;;;;;;;;5034815;28;20037;-64
2021/11/11 12:42:02;;;;;;;6.75;4.30;;;;;;;;;;5070593;28;20427;-64
2021/11/11 12:44:28;;;;;;;5.13;3.58;;;;;;;;;;5034854;28;20034;-64
2021/11/11 12:46:54;;;;;;;5.45;3.40;;;;;;;;;;5040818;28;20025;-64
2021/11/11 12:49:28;;;;;;;4.38;3.30;;;;;;;;;;5054503;28;20025;-64
2021/11/11 12:52:14;;;;;;;5.60;3.78;;;;;;;;;;5033968;28;20040;-64
2021/11/11 12:54:41;;;;;;;4.97;3.40;;;;;;;;;;5034616;28;20034;-64
2021/11/11 12:57:08;;;;;;;5.35;3.58;;;;;;;;;;5048643;28;20021;-64
2021/11/11 12:59:36;;;;;;;4.57;3.33;;;;;;;;;;5070307;28;20032;-64
2021/11/11 13:02:06;;;;;;;4.15;3.40;;;;;;;;;;5045389;28;20020;-64
2021/11/11 13:04:51;;;;;;;5.07;3.50;;;;;;;;;;5042806;28;20033;-64
2021/11/11 13:07:31;;;;;;;4.13;3.53;;;;;;;;;;5054283;28;20020;-64
2021/11/11 13:10:05;;;;;;;6.30;3.30;;;;;;;;;;5053255;28;20028;-64
2021/11/11 13:12:32;;;;;;;3.88;2.90;;;;;;;;;;5053862;28;20029;-64
2021/11/11 13:15:06;;;;;;;5.75;4.15;;;;;;;;;;5052886;28;20029;-64
2021/11/11 13:17:43;;;;;;;4.00;2.78;;;;;;;;;;5054189;28;20111;-64
2021/11/11 13:20:31;;;;;;;5.47;3.58;;;;;;;;;;5052820;28;20454;-64
2021/11/11 13:23:05;;;;;;;4.47;3.42;;;;;;;;;;5064989;28;20021;-64
2021/11/11 14:05:15;;;;;;;5.15;3.17;;;;;;;;;;5072752;28;20044;-64
2021/11/11 16:26:33;;;;;;;4.47;3.30;;;;;;;;;;5051277;28;20036;-60
2021/11/11 16:29:01;;;;;;;4.63;3.55;;;;;;;;;;5048465;28;20052;-63
2021/11/11 16:31:28;;;;;;;6.28;3.28;;;;;;;;;;5052950;28;20075;-58
2021/11/11 16:33:57;;;;;;;5.38;3.28;;;;;;;;;;5049097;28;20452;-55
2021/11/11 16:36:23;;;;;;;8.70;3.30;;;;;;;;;;5031046;28;20064;-57
2021/11/11 16:38:50;;;;;;;5.32;3.92;;;;;;;;;;5033901;28;20033;-61
2021/11/11 16:41:16;;;;;;;5.60;3.47;;;;;;;;;;5039983;28;20045;-59
2021/11/11 16:43:43;;;;;;;6.32;3.00;;;;;;;;;;5054683;28;20028;-58
2021/11/11 16:46:09;;;;;;;5.13;3.80;;;;;;;;;;5052548;28;20035;-54
2021/11/11 16:48:36;;;;;;;5.93;4.05;;;;;;;;;;5034357;28;20375;-58
2021/11/11 16:51:04;;;;;;;3.85;3.35;;;;;;;;;;5047028;28;20505;-53
2021/11/11 16:53:30;;;;;;;6.22;3.60;;;;;;;;;;5053880;28;20036;-56
2021/11/11 16:56:03;;;;;;;4.53;3.40;;;;;;;;;;5053586;28;20477;-61
2021/11/11 16:58:29;;;;;;;6.07;3.53;;;;;;;;;;5052073;28;20032;-65
2021/11/11 17:00:55;;;;;;;8.18;3.95;;;;;;;;;;5053001;28;20125;-66
2021/11/11 17:03:22;;;;;;;8.13;3.80;;;;;;;;;;5053749;28;20017;-69
2021/11/11 17:05:48;;;;;;;6.15;3.45;;;;;;;;;;5053729;28;20036;-69
2021/11/11 17:08:15;;;;;;;7.13;4.22;;;;;;;;;;5052856;28;20028;-67
2021/11/11 17:10:42;;;;;;;4.22;3.20;;;;;;;;;;5052438;28;20067;-66
2021/11/11 17:13:08;;;;;;;11.52;3.88;;;;;;;;;;5052828;28;20470;-65
2021/11/11 17:15:35;;;;;;;5.35;3.33;;;;;;;;;;5053497;28;20065;-68
2021/11/11 17:18:02;;;;;;;5.93;3.53;;;;;;;;;;5052575;28;20041;-68
2021/11/11 17:20:29;;;;;;;4.70;3.35;;;;;;;;;;5055835;28;20412;-71
2021/11/11 17:22:57;;;;;;;5.85;3.85;;;;;;;;;;5052509;28;20045;-75
2021/11/11 17:30:44;;;;;;;5.60;4.07;;;;;;;;;;5054170;28;20033;-70
2021/11/11 17:33:11;;;;;;;5.13;3.53;;;;;;;;;;5054680;28;20474;-67
2021/11/11 17:35:37;;;;;;;6.47;4.28;;;;;;;;;;5054677;28;20049;-65
2021/11/11 17:38:04;;;;;;;4.28;3.40;;;;;;;;;;5062505;28;20032;-63
2021/11/11 17:40:30;;;;;;;7.90;4.30;;;;;;;;;;5074096;28;20107;-71
2021/11/11 17:42:57;;;;;;;7.78;3.72;;;;;;;;;;5062861;28;20017;-63
2021/11/11 17:45:32;;;;;;;4.05;3.10;;;;;;;;;;5053628;28;20091;-69
2021/11/11 17:48:05;;;;;;;6.20;3.65;;;;;;;;;;5053265;28;20032;-60
2021/11/11 17:50:33;;;;;;;6.28;4.00;;;;;;;;;;5053116;28;20021;-53
2021/11/11 17:53:08;;;;;;;8.25;5.32;;;;;;;;;;5051716;28;20029;-64
2021/11/11 17:55:38;;;;;;;10.68;5.72;;;;;;;;;;5073385;28;20048;-61
2021/11/11 17:58:05;;;;;;;10.55;6.13;;;;;;;;;;5072878;28;20031;-70
2021/11/11 18:00:31;;;;;;;10.38;5.85;;;;;;;;;;5073400;28;20539;-63
2021/11/11 18:02:58;;;;;;;10.38;6.13;;;;;;;;;;5073779;28;20029;-68
2021/11/11 18:05:26;;;;;;;12.65;5.97;;;;;;;;;;5058709;28;20057;-66
2021/11/11 18:07:57;;;;;;;13.88;5.65;;;;;;;;;;5054452;28;20044;-66
2021/11/11 18:10:30;;;;;;;7.93;4.60;;;;;;;;;;5033173;28;20037;-66
2021/11/11 18:12:58;;;;;;;10.27;5.30;;;;;;;;;;5052631;28;20028;-71
2021/11/11 18:15:31;;;;;;;6.95;4.50;;;;;;;;;;5054282;28;20036;-68
2021/11/11 18:17:58;;;;;;;9.13;4.57;;;;;;;;;;5053111;28;20025;-73
2021/11/11 18:20:24;;;;;;;6.72;4.63;;;;;;;;;;5065575;28;20036;-74
2021/11/11 18:22:52;;;;;;;7.82;4.68;;;;;;;;;;5064818;28;20365;-75
2021/11/11 18:25:19;;;;;;;6.13;5.07;;;;;;;;;;5072122;28;20093;-70
2021/11/11 18:27:46;;;;;;;7.00;4.47;;;;;;;;;;5073342;28;20032;-72
2021/11/11 18:32:57;;;;;;;7.40;3.88;;;;;;;;;;5060633;28;20036;-68
2021/11/11 18:35:25;;;;;;;13.50;5.15;;;;;;;;;;5069539;28;20044;-63
2021/11/11 18:37:52;;;;;;;10.20;4.97;;;;;;;;;;5074515;28;20113;-65
2021/11/11 18:40:18;;;;;;;11.48;4.78;;;;;;;;;;5071492;28;20350;-66
2021/11/11 18:42:44;;;;;;;18.58;5.50;;;;;;;;;;5072862;28;20031;-77
2021/11/11 18:45:14;;;;;;;12.30;4.68;;;;;;;;;;5072161;28;20040;-71
2021/11/11 18:47:59;;;;;;;8.88;4.55;;;;;;;;;;5073112;28;20031;-65
2021/11/11 18:50:25;;;;;;;7.00;4.38;;;;;;;;;;5066038;28;20024;-65
2021/11/11 18:52:52;;;;;;;7.85;4.38;;;;;;;;;;5070178;28;20025;-67
2021/11/11 18:55:18;;;;;;;8.82;4.40;;;;;;;;;;5073150;28;20033;-67
2021/11/11 18:57:44;;;;;;;7.10;4.25;;;;;;;;;;5071981;28;20044;-69
2021/11/11 19:00:13;;;;;;;6.85;4.07;;;;;;;;;;5070904;28;20471;-67